Time;durP1;ratioP1;P1;durP2;ratioP2;P2;SDS_P1;SDS_P2;PMS_P1;PMS_P2;Temp;Humidity;BMP_temperature;BMP_pressure;BME280_temperature;BME280_humidity;BME280_pressure;Samples;Min_cycle;Max_cycle;Signal;HPM_P1;HPM_P2
2023/05/24 00:02:19;;;;;;;16.55;3.90;;;;;;;11.07;81.03;101318.59;8324689;28;20037;-62
2023/05/24 00:06:20;;;;;;;14.93;2.97;;;;;;;11.02;81.92;101323.53;8324668;28;20041;-62
2023/05/24 00:10:21;;;;;;;16.90;3.42;;;;;;;10.90;82.29;101320.97;8323523;28;20436;-62
2023/05/24 00:14:21;;;;;;;15.73;3.40;;;;;;;10.85;82.09;101324.03;8324939;28;20064;-62
2023/05/24 00:18:22;;;;;;;15.30;4.00;;;;;;;10.81;83.07;101327.97;8324432;28;20124;-62
2023/05/24 00:22:23;;;;;;;17.05;3.58;;;;;;;10.59;84.15;101329.78;8324541;28;20064;-62
2023/05/24 00:26:24;;;;;;;13.20;3.63;;;;;;;10.52;84.74;101337.50;8324256;28;20465;-62
2023/05/24 00:30:29;;;;;;;17.50;3.83;;;;;;;10.34;85.19;101341.66;8324265;28;20041;-62
2023/05/24 00:34:30;;;;;;;17.50;5.60;;;;;;;10.05;86.26;101340.31;8324168;28;20042;-62
2023/05/24 00:38:30;;;;;;;25.48;6.30;;;;;;;10.02;87.23;101341.41;8322964;28;20041;-63
2023/05/24 00:42:31;;;;;;;17.13;5.00;;;;;;;10.07;87.24;101338.41;8323925;28;20095;-63
2023/05/24 00:46:32;;;;;;;21.08;4.65;;;;;;;10.01;87.42;101333.44;8323460;28;20038;-63
2023/05/24 00:50:33;;;;;;;18.20;4.63;;;;;;;10.07;86.99;101329.41;8321694;28;20124;-63
2023/05/24 00:54:34;;;;;;;16.90;3.75;;;;;;;10.17;86.77;101330.44;8320452;28;20121;-63
2023/05/24 00:58:35;;;;;;;19.15;4.68;;;;;;;9.98;87.48;101329.09;8322255;28;20411;-63
2023/05/24 01:02:36;;;;;;;18.70;3.58;;;;;;;9.54;89.57;101333.44;8323755;28;20076;-63
2023/05/24 01:06:50;;;;;;;12.63;3.20;;;;;;;9.45;90.98;101339.50;8323144;28;20491;-63
2023/05/24 01:11:00;;;;;;;20.92;4.10;;;;;;;9.29;91.16;101333.53;8314583;28;20376;-63
2023/05/24 01:15:14;;;;;;;20.02;3.78;;;;;;;9.51;92.28;101333.66;8323280;28;20036;-63
2023/05/24 01:19:50;;;;;;;21.20;3.70;;;;;;;9.38;90.49;101333.72;8322547;28;20061;-63
2023/05/24 01:28:09;;;;;;;15.95;3.47;;;;;;;9.26;92.23;101344.53;8313875;27;20929;-61
2023/05/24 01:32:09;;;;;;;14.10;3.85;;;;;;;9.11;93.64;101334.84;8318647;28;20048;-61
2023/05/24 01:36:10;;;;;;;16.73;4.00;;;;;;;9.08;92.81;101340.47;8318058;28;20540;-61
2023/05/24 01:40:11;;;;;;;13.43;4.07;;;;;;;9.08;93.85;101332.38;8318123;28;20124;-61
2023/05/24 01:44:42;;;;;;;15.68;3.85;;;;;;;9.03;92.79;101332.72;8318058;28;20045;-62
2023/05/24 01:48:55;;;;;;;15.93;3.85;;;;;;;8.63;94.50;101327.63;8317915;28;20474;-62
2023/05/24 01:53:02;;;;;;;24.63;4.50;;;;;;;8.58;95.36;101332.44;8317976;28;20048;-62
2023/05/24 01:57:06;;;;;;;13.80;5.47;;;;;;;8.78;95.23;101324.66;8317868;28;20399;-63
2023/05/24 02:01:08;;;;;;;15.75;4.05;;;;;;;8.84;95.13;101320.69;8317249;28;20124;-63
2023/05/24 02:05:09;;;;;;;23.20;3.88;;;;;;;8.73;95.05;101307.97;8318097;28;20052;-63
2023/05/24 02:09:10;;;;;;;12.70;3.83;;;;;;;8.65;94.44;101314.88;8316495;28;20458;-63
2023/05/24 02:13:10;;;;;;;15.35;3.85;;;;;;;8.59;95.49;101318.00;8316959;28;20033;-63
2023/05/24 02:17:12;;;;;;;13.32;3.53;;;;;;;8.49;95.51;101316.94;8316897;28;20550;-63
2023/05/24 02:21:12;;;;;;;14.50;4.10;;;;;;;8.30;96.34;101319.19;8317897;28;20041;-60
2023/05/24 02:25:13;;;;;;;16.10;4.18;;;;;;;8.22;96.46;101316.13;8304591;28;20136;-60
2023/05/24 02:29:14;;;;;;;18.92;4.47;;;;;;;7.97;98.05;101317.81;8290762;28;20239;-60
2023/05/24 02:33:14;;;;;;;16.90;4.07;;;;;;;8.04;97.93;101313.75;8316765;28;20108;-60
2023/05/24 02:37:14;;;;;;;14.65;3.60;;;;;;;8.08;98.20;101307.16;8306483;28;20408;-60
2023/05/24 02:41:17;;;;;;;17.40;3.25;;;;;;;7.92;98.38;101309.19;8294989;28;20037;-60
2023/05/24 02:45:17;;;;;;;15.75;3.80;;;;;;;8.14;97.51;101305.03;8294224;28;20045;-60
2023/05/24 02:49:17;;;;;;;13.52;4.00;;;;;;;8.20;97.47;101307.31;8290676;28;20575;-60
2023/05/24 02:53:18;;;;;;;14.18;3.25;;;;;;;8.08;97.47;101315.25;8292381;28;20088;-60
2023/05/24 02:57:19;;;;;;;13.05;3.67;;;;;;;8.47;97.46;101303.56;8292368;28;20468;-60
2023/05/24 03:01:21;;;;;;;21.30;4.53;;;;;;;8.57;95.32;101317.25;8294116;28;20046;-60
2023/05/24 03:05:23;;;;;;;15.88;3.35;;;;;;;8.22;94.21;101316.13;8294443;28;20583;-60
2023/05/24 03:09:24;;;;;;;13.02;4.35;;;;;;;8.15;96.74;101304.94;8293348;28;20538;-60
2023/05/24 03:13:24;;;;;;;20.90;3.72;;;;;;;8.25;96.58;101294.41;8293502;28;20407;-60
2023/05/24 03:17:25;;;;;;;18.85;3.78;;;;;;;8.29;97.45;101301.31;8292865;28;20053;-60
2023/05/24 03:21:26;;;;;;;22.42;4.30;;;;;;;8.43;95.06;101298.50;8292080;28;20050;-60
2023/05/24 03:25:26;;;;;;;25.25;4.05;;;;;;;8.29;95.43;101298.63;8291777;28;20052;-60
2023/05/24 03:29:27;;;;;;;17.33;4.47;;;;;;;8.25;95.81;101297.09;8269641;28;20045;-60
2023/05/24 03:33:28;;;;;;;16.10;3.90;;;;;;;8.21;97.45;101293.72;8293100;28;20038;-60
2023/05/24 03:37:29;;;;;;;12.63;4.40;;;;;;;8.28;97.34;101302.25;8292817;28;20045;-60
2023/05/24 03:41:30;;;;;;;23.63;4.53;;;;;;;8.46;95.90;101309.06;8293450;28;20068;-60
2023/05/24 03:45:33;;;;;;;18.88;4.18;;;;;;;8.38;95.43;101316.84;8292714;28;20520;-60
2023/05/24 03:49:33;;;;;;;16.17;3.70;;;;;;;8.37;96.09;101315.97;8292327;28;20491;-60
2023/05/24 03:53:35;;;;;;;12.15;3.60;;;;;;;8.19;95.13;101313.63;8293340;28;20069;-60
2023/05/24 03:57:35;;;;;;;14.02;3.13;;;;;;;7.85;98.24;101318.66;8292032;28;20038;-60
2023/05/24 04:01:36;;;;;;;21.67;4.50;;;;;;;7.94;99.50;101311.78;8283781;28;20443;-60
2023/05/24 04:05:36;;;;;;;13.63;4.00;;;;;;;7.91;99.28;101312.88;8289445;28;20116;-60
2023/05/24 04:09:39;;;;;;;22.83;4.13;;;;;;;7.96;100.00;101320.59;8283738;28;20046;-61
2023/05/24 04:13:40;;;;;;;14.88;4.70;;;;;;;8.15;98.51;101317.53;8276496;28;20034;-61
2023/05/24 04:17:42;;;;;;;18.10;4.03;;;;;;;8.38;97.47;101316.84;8263863;28;20104;-60
2023/05/24 04:21:44;;;;;;;17.75;4.57;;;;;;;8.31;98.26;101312.81;8271039;28;20035;-60
2023/05/24 04:25:44;;;;;;;16.73;4.88;;;;;;;8.43;99.43;101317.34;8246937;28;20045;-60
2023/05/24 04:29:48;;;;;;;25.50;4.15;;;;;;;8.63;98.59;101338.41;8287164;28;20038;-60
2023/05/24 04:33:49;;;;;;;17.83;4.10;;;;;;;9.10;95.44;101333.16;8286448;28;20072;-60
2023/05/24 04:37:51;;;;;;;21.27;4.72;;;;;;;9.43;93.64;101338.78;8268926;28;20042;-60
2023/05/24 04:41:55;;;;;;;30.02;4.90;;;;;;;9.69;92.55;101326.88;8273639;28;20053;-60
2023/05/24 04:45:55;;;;;;;29.70;5.25;;;;;;;9.99;91.14;101330.84;8283950;28;20451;-60
2023/05/24 04:49:56;;;;;;;29.77;4.78;;;;;;;10.27;90.37;101339.56;8288229;28;21120;-61
2023/05/24 04:53:56;;;;;;;28.55;4.80;;;;;;;10.42;91.12;101350.03;8288994;28;20373;-60
2023/05/24 04:57:56;;;;;;;27.08;4.38;;;;;;;10.66;89.22;101342.72;8287921;28;20080;-60
2023/05/24 05:01:57;;;;;;;29.85;4.38;;;;;;;10.81;89.51;101351.44;8288275;28;20046;-58
2023/05/24 05:05:58;;;;;;;22.85;4.03;;;;;;;10.94;88.17;101363.00;8288656;28;20041;-58
2023/05/24 05:09:58;;;;;;;21.55;4.35;;;;;;;11.00;87.40;101374.22;8287539;28;20085;-58
2023/05/24 05:13:59;;;;;;;20.30;4.03;;;;;;;11.38;88.31;101369.25;8273597;28;20072;-58
2023/05/24 05:17:59;;;;;;;21.52;4.18;;;;;;;11.58;86.34;101376.63;8282816;28;20183;-58
2023/05/24 05:22:00;;;;;;;21.10;5.22;;;;;;;11.79;85.67;101374.88;8269853;28;20096;-61
2023/05/24 05:26:00;;;;;;;22.27;4.28;;;;;;;12.04;86.49;101372.84;8266992;28;20455;-61
2023/05/24 05:30:01;;;;;;;19.15;4.53;;;;;;;12.03;85.05;101381.94;8271406;28;20058;-61
2023/05/24 05:34:02;;;;;;;22.65;3.78;;;;;;;11.97;83.99;101374.31;8283625;28;20505;-61
2023/05/24 05:38:02;;;;;;;17.92;4.10;;;;;;;12.11;83.30;101390.31;8283836;28;20122;-61
2023/05/24 05:42:03;;;;;;;20.80;4.43;;;;;;;12.32;83.38;101383.06;8285380;28;20153;-61
2023/05/24 05:46:03;;;;;;;21.92;4.68;;;;;;;12.30;82.50;101385.03;8287155;28;20125;-61
2023/05/24 05:50:04;;;;;;;19.25;5.57;;;;;;;12.43;83.07;101389.28;8275844;28;20053;-61
2023/05/24 05:54:05;;;;;;;20.25;4.00;;;;;;;12.80;81.64;101381.53;8276772;28;20038;-61
2023/05/24 05:58:05;;;;;;;30.38;6.00;;;;;;;12.66;80.43;101373.75;8287153;28;20049;-61
2023/05/24 06:02:06;;;;;;;23.27;5.70;;;;;;;12.91;80.32;101371.47;8263707;28;20400;-61
2023/05/24 06:06:06;;;;;;;19.38;5.43;;;;;;;13.03;80.77;101369.56;8269964;28;20125;-61
2023/05/24 06:10:07;;;;;;;25.52;6.68;;;;;;;13.12;79.91;101368.75;8270151;28;20049;-61
2023/05/24 06:14:07;;;;;;;26.73;6.82;;;;;;;13.54;81.50;101370.31;8276526;28;20403;-61
2023/05/24 06:18:08;;;;;;;23.48;6.50;;;;;;;13.93;79.17;101377.56;8291304;28;20042;-62
2023/05/24 06:22:08;;;;;;;32.60;6.88;;;;;;;13.71;78.42;101377.81;8291712;28;20033;-61
2023/05/24 06:26:09;;;;;;;28.95;6.28;;;;;;;13.71;76.19;101366.94;8292356;28;20049;-61
2023/05/24 06:30:09;;;;;;;31.50;7.65;;;;;;;13.93;76.17;101372.13;8290358;28;20042;-60
2023/05/24 06:34:10;;;;;;;29.77;7.32;;;;;;;13.67;75.92;101360.06;8292194;28;20048;-63
2023/05/24 06:38:10;;;;;;;33.88;7.05;;;;;;;13.54;76.31;101365.75;8291240;28;20701;-61
2023/05/24 06:42:11;;;;;;;34.17;7.22;;;;;;;13.70;76.04;101362.50;8293187;28;20034;-61
2023/05/24 06:46:11;;;;;;;31.67;6.93;;;;;;;14.12;76.54;101361.25;8290582;28;20091;-61
2023/05/24 06:50:12;;;;;;;29.40;6.85;;;;;;;14.64;73.71;101358.09;8292502;28;20068;-61
2023/05/24 06:54:12;;;;;;;34.53;7.60;;;;;;;14.94;72.80;101365.19;8292008;28;20104;-61
2023/05/24 06:58:13;;;;;;;29.10;7.85;;;;;;;14.91;73.17;101358.19;8289642;28;20411;-61
2023/05/24 07:02:13;;;;;;;33.90;7.95;;;;;;;14.98;72.64;101367.47;8291532;28;20042;-59
2023/05/24 07:06:15;;;;;;;36.50;8.45;;;;;;;15.14;71.94;101378.63;8290178;28;20092;-58
2023/05/24 07:10:15;;;;;;;29.48;8.05;;;;;;;14.80;71.24;101382.88;8290386;28;20038;-58
2023/05/24 07:14:15;;;;;;;32.80;9.32;;;;;;;14.48;73.22;101390.50;8288052;28;20071;-58
2023/05/24 07:18:16;;;;;;;40.55;10.85;;;;;;;14.42;72.67;101395.66;8289589;28;20065;-59
2023/05/24 07:22:17;;;;;;;39.53;11.38;;;;;;;14.23;73.54;101396.50;8283523;28;20034;-61
2023/05/24 07:26:17;;;;;;;41.53;11.68;;;;;;;14.23;73.74;101391.06;8290175;28;20124;-61
2023/05/24 07:30:18;;;;;;;38.90;10.07;;;;;;;14.56;77.16;101382.47;8287604;28;20042;-61
2023/05/24 07:34:20;;;;;;;39.70;10.20;;;;;;;14.77;76.92;101395.91;8290204;28;20436;-61
2023/05/24 07:38:21;;;;;;;33.72;8.70;;;;;;;14.86;75.33;101395.91;8290357;28;20108;-61
2023/05/24 07:42:21;;;;;;;31.67;7.35;;;;;;;14.83;74.55;101390.75;8289642;28;20524;-61
2023/05/24 07:46:22;;;;;;;33.30;7.25;;;;;;;14.72;74.98;101393.63;8290650;28;20137;-61
2023/05/24 07:50:22;;;;;;;26.90;6.55;;;;;;;14.92;75.89;101398.03;8283748;28;20586;-63
2023/05/24 07:54:23;;;;;;;26.35;6.32;;;;;;;14.73;74.85;101398.06;8279202;28;20052;-61
2023/05/24 07:58:23;;;;;;;31.02;7.15;;;;;;;14.42;72.31;101396.50;8287247;28;20056;-61
2023/05/24 08:02:24;;;;;;;26.10;7.00;;;;;;;14.58;69.49;101402.22;8259314;28;20452;-62
2023/05/24 08:06:24;;;;;;;21.25;6.80;;;;;;;14.40;69.67;101408.56;8287882;28;20041;-62
2023/05/24 08:10:25;;;;;;;27.85;6.65;;;;;;;14.45;70.57;101401.66;8287421;28;20045;-62
2023/05/24 08:14:25;;;;;;;30.25;7.00;;;;;;;14.49;70.68;101396.81;8290547;28;20122;-62
2023/05/24 08:18:26;;;;;;;29.33;7.35;;;;;;;14.37;70.50;101398.81;8285279;28;20045;-62
2023/05/24 08:22:26;;;;;;;26.60;7.03;;;;;;;14.49;69.87;101384.03;8287700;28;20053;-62
2023/05/24 08:26:27;;;;;;;27.85;6.50;;;;;;;14.49;70.29;101381.31;8266722;28;20500;-62
2023/05/24 08:30:27;;;;;;;25.05;5.93;;;;;;;14.98;69.13;101378.34;8272803;28;20072;-61
2023/05/24 08:34:28;;;;;;;25.45;6.32;;;;;;;14.92;67.86;101383.56;8288392;28;20397;-61
2023/05/24 08:38:28;;;;;;;21.08;6.00;;;;;;;14.68;68.72;101384.03;8287716;28;20038;-60
2023/05/24 08:42:29;;;;;;;22.80;6.18;;;;;;;15.25;67.77;101386.59;8286607;28;20041;-61
2023/05/24 08:46:31;;;;;;;30.77;6.80;;;;;;;15.05;68.31;101395.84;8289097;28;20119;-61
2023/05/24 08:50:33;;;;;;;21.63;5.60;;;;;;;14.87;69.04;101392.16;8288638;28;20037;-61
2023/05/24 08:54:36;;;;;;;26.00;5.20;;;;;;;14.77;69.18;101399.50;8288593;28;20042;-60
2023/05/24 08:58:39;;;;;;;26.10;6.20;;;;;;;14.96;69.31;101390.41;8287631;28;20128;-61
2023/05/24 09:02:41;;;;;;;23.25;6.28;;;;;;;15.07;68.36;101391.09;8277357;28;20042;-61
2023/05/24 09:06:42;;;;;;;27.35;6.25;;;;;;;15.07;69.11;101393.81;8288527;28;20042;-60
2023/05/24 09:10:43;;;;;;;25.45;5.28;;;;;;;15.22;69.14;101388.78;8282802;28;20061;-60
2023/05/24 09:14:46;;;;;;;21.75;5.30;;;;;;;15.26;66.91;101388.31;8287729;28;20041;-59
2023/05/24 09:18:46;;;;;;;21.33;5.18;;;;;;;15.40;67.28;101378.84;8288101;28;20490;-60
2023/05/24 09:22:51;;;;;;;21.38;5.65;;;;;;;15.39;65.75;101380.69;8287652;28;20184;-60
2023/05/24 09:26:51;;;;;;;22.73;5.75;;;;;;;15.28;66.13;101390.91;8287391;28;20069;-59
2023/05/24 09:31:07;;;;;;;22.33;6.00;;;;;;;15.36;67.25;101380.09;8288265;28;20049;-60
2023/05/24 09:35:09;;;;;;;29.50;5.65;;;;;;;15.11;67.25;101384.34;8287392;28;20034;-60
2023/05/24 09:39:09;;;;;;;30.70;5.07;;;;;;;15.23;68.76;101376.84;8287568;28;20038;-60
2023/05/24 09:43:10;;;;;;;25.33;5.63;;;;;;;15.26;67.81;101376.56;8287725;28;20038;-60
2023/05/24 09:47:11;;;;;;;21.92;5.60;;;;;;;15.05;67.57;101371.34;8283060;28;20046;-59
2023/05/24 09:51:12;;;;;;;19.13;5.18;;;;;;;14.78;68.84;101370.38;8273985;28;20045;-60
2023/05/24 09:55:14;;;;;;;24.02;6.80;;;;;;;14.98;68.76;101372.06;8293738;28;20412;-60
2023/05/24 09:59:15;;;;;;;19.38;5.30;;;;;;;14.85;68.99;101366.94;8293402;28;20038;-60
2023/05/24 10:03:15;;;;;;;21.63;4.97;;;;;;;14.96;69.67;101364.06;8293773;28;20034;-60
2023/05/24 10:07:16;;;;;;;17.40;4.93;;;;;;;14.91;69.60;101370.97;8293024;28;20137;-59
2023/05/24 10:11:17;;;;;;;20.50;4.68;;;;;;;14.97;69.15;101373.94;8293601;28;20042;-59
2023/05/24 10:15:18;;;;;;;20.75;5.60;;;;;;;15.26;69.38;101365.66;8293190;28;20068;-60
2023/05/24 10:19:18;;;;;;;29.13;4.70;;;;;;;15.77;69.08;101367.84;8292044;28;20579;-59
2023/05/24 10:23:20;;;;;;;26.48;5.38;;;;;;;16.31;69.79;101359.56;8289417;28;20062;-60
2023/05/24 10:27:24;;;;;;;28.58;5.07;;;;;;;16.79;67.42;101355.38;8276319;28;20057;-60
2023/05/24 10:31:31;;;;;;;26.80;5.63;;;;;;;16.75;66.71;101364.91;8270397;28;20125;-59
2023/05/24 10:35:32;;;;;;;25.52;4.82;;;;;;;16.44;66.32;101365.50;8292272;28;20124;-59
2023/05/24 10:39:34;;;;;;;29.42;6.03;;;;;;;16.34;69.94;101364.69;8289618;28;20528;-59
2023/05/24 10:43:35;;;;;;;20.23;5.43;;;;;;;16.74;68.97;101362.34;8292659;28;20443;-60
2023/05/24 10:47:36;;;;;;;25.98;5.38;;;;;;;16.94;66.38;101369.28;8290082;28;20076;-59
2023/05/24 10:51:38;;;;;;;28.30;5.30;;;;;;;16.99;65.21;101369.69;8290106;28;20053;-60
2023/05/24 10:56:08;;;;;;;16.50;4.70;;;;;;;17.00;61.56;101353.13;8291495;28;20053;-60
2023/05/24 11:04:38;;;;;;;21.60;5.32;;;;;;;19.37;60.09;101342.00;8378027;27;20474;-58
2023/05/24 11:08:42;;;;;;;15.18;4.70;;;;;;;20.55;53.69;101333.41;8380497;28;20526;-59
2023/05/24 11:12:43;;;;;;;16.73;5.03;;;;;;;21.89;55.93;101330.38;8374316;28;20242;-59
2023/05/24 11:16:46;;;;;;;17.08;5.15;;;;;;;19.67;55.80;101336.75;8371411;28;20040;-59
2023/05/24 11:20:47;;;;;;;25.42;6.20;;;;;;;18.42;59.86;101330.19;8354309;28;20036;-59
2023/05/24 11:24:47;;;;;;;16.10;4.82;;;;;;;17.79;61.65;101345.47;8373133;28;20041;-59
2023/05/24 11:28:48;;;;;;;21.95;5.28;;;;;;;17.81;61.46;101332.47;8357853;28;20086;-59
2023/05/24 11:32:49;;;;;;;15.85;5.07;;;;;;;18.06;61.50;101326.03;8355002;28;20085;-59
2023/05/24 11:36:52;;;;;;;19.00;5.32;;;;;;;17.64;61.02;101319.78;8378201;28;20048;-59
2023/05/24 11:40:52;;;;;;;16.92;4.72;;;;;;;17.36;62.40;101326.50;8378000;28;20538;-59
2023/05/24 11:44:53;;;;;;;14.68;4.07;;;;;;;17.64;65.16;101319.78;8380903;28;20574;-59
2023/05/24 11:48:56;;;;;;;16.17;4.82;;;;;;;18.84;59.17;101306.16;8381221;28;20430;-59
2023/05/24 11:53:02;;;;;;;18.97;5.30;;;;;;;19.69;56.89;101312.72;8380506;28;20093;-59
2023/05/24 11:57:04;;;;;;;21.50;4.45;;;;;;;19.65;55.42;101316.88;8379613;28;20040;-59
2023/05/24 12:01:04;;;;;;;13.50;4.10;;;;;;;20.35;53.87;101308.34;8357971;28;20495;-59
2023/05/24 12:05:08;;;;;;;23.10;5.28;;;;;;;19.65;56.82;101311.38;8378658;28;20415;-59
2023/05/24 12:09:12;;;;;;;15.77;4.13;;;;;;;18.84;58.14;101292.47;8374155;28;20043;-59
2023/05/24 12:13:23;;;;;;;16.88;4.38;;;;;;;19.02;56.80;101290.38;8372320;28;20563;-59
2023/05/24 12:17:24;;;;;;;15.65;4.97;;;;;;;18.32;57.36;101298.47;8358378;28;20047;-64
2023/05/24 12:21:29;;;;;;;15.25;4.22;;;;;;;18.34;60.02;101302.78;8357866;28;20037;-63
2023/05/24 12:25:29;;;;;;;13.50;4.53;;;;;;;17.69;60.24;101305.63;8357789;28;20060;-63
2023/05/24 12:29:33;;;;;;;15.95;3.95;;;;;;;17.06;60.46;101303.28;8358100;28;20044;-64
2023/05/24 12:33:34;;;;;;;14.00;3.97;;;;;;;16.64;61.13;101304.22;8357605;28;20068;-60
2023/05/24 12:37:35;;;;;;;13.40;4.90;;;;;;;16.61;62.28;101308.13;8356192;28;20041;-59
2023/05/24 12:41:35;;;;;;;16.48;4.68;;;;;;;16.53;62.39;101309.97;8356749;28;20132;-59
2023/05/24 12:45:36;;;;;;;20.52;4.63;;;;;;;16.70;62.86;101306.31;8355963;28;20130;-60
2023/05/24 12:49:36;;;;;;;20.60;4.65;;;;;;;16.56;63.00;101305.00;8357194;28;20041;-60
2023/05/24 12:53:37;;;;;;;21.80;4.00;;;;;;;16.58;63.75;101313.03;8349315;28;20199;-62
2023/05/24 12:57:37;;;;;;;13.48;3.53;;;;;;;16.53;63.73;101309.97;8331882;28;20462;-62
2023/05/24 13:01:37;;;;;;;18.63;4.53;;;;;;;16.59;63.56;101314.78;8344928;28;20454;-61
2023/05/24 13:05:38;;;;;;;16.27;3.95;;;;;;;16.71;62.35;101310.78;8341820;28;20094;-61
2023/05/24 13:09:38;;;;;;;20.00;5.15;;;;;;;17.01;61.80;101304.78;8348266;28;20032;-61
2023/05/24 13:13:39;;;;;;;19.55;4.65;;;;;;;17.19;60.88;101303.69;8355850;28;20410;-61
2023/05/24 13:17:40;;;;;;;18.25;4.40;;;;;;;17.20;59.86;101299.09;8354895;28;20606;-61
2023/05/24 13:21:41;;;;;;;9.68;3.60;;;;;;;17.34;59.59;101293.84;8345334;28;20499;-61
2023/05/24 13:25:41;;;;;;;15.45;5.07;;;;;;;17.71;60.11;101298.94;8321710;28;20499;-61
2023/05/24 13:29:43;;;;;;;14.10;4.18;;;;;;;18.00;58.58;101288.41;8331274;28;20049;-61
2023/05/24 13:33:43;;;;;;;16.88;4.43;;;;;;;18.61;57.98;101287.91;8353001;28;20391;-61
2023/05/24 13:37:44;;;;;;;17.85;4.85;;;;;;;18.59;57.61;101285.34;8354747;28;20040;-61
2023/05/24 13:41:45;;;;;;;26.35;5.50;;;;;;;18.47;58.91;101292.19;8353941;28;20048;-61
2023/05/24 13:45:45;;;;;;;16.85;5.38;;;;;;;18.26;57.91;101275.41;8354798;28;20064;-61
2023/05/24 13:49:46;;;;;;;14.73;4.60;;;;;;;18.20;57.67;101267.88;8355409;28;20036;-61
2023/05/24 13:53:47;;;;;;;13.23;4.18;;;;;;;18.09;56.80;101270.97;8355127;28;20063;-61
2023/05/24 13:57:47;;;;;;;15.32;3.65;;;;;;;18.13;58.48;101277.81;8349680;28;20036;-61
2023/05/24 14:01:48;;;;;;;21.17;4.45;;;;;;;17.94;57.62;101272.66;8339498;28;20044;-62
2023/05/24 14:05:49;;;;;;;16.58;4.75;;;;;;;17.89;57.16;101269.56;8354670;28;20523;-62
2023/05/24 14:09:49;;;;;;;20.70;5.00;;;;;;;18.04;57.30;101272.47;8349560;28;20048;-62
2023/05/24 14:13:50;;;;;;;18.02;5.57;;;;;;;18.20;57.46;101278.81;8352493;28;20064;-61
2023/05/24 14:17:50;;;;;;;17.05;5.72;;;;;;;18.28;57.31;101281.56;8352728;28;20040;-62
2023/05/24 14:21:51;;;;;;;19.20;5.05;;;;;;;18.47;56.92;101270.28;8354242;28;20140;-62
2023/05/24 14:25:51;;;;;;;16.30;5.47;;;;;;;18.47;57.24;101278.50;8352229;28;20033;-62
2023/05/24 14:29:52;;;;;;;17.85;7.90;;;;;;;18.63;58.15;101281.22;8339503;28;20037;-62
2023/05/24 14:33:52;;;;;;;24.35;7.93;;;;;;;18.90;58.53;101267.09;8318901;28;20794;-62
2023/05/24 14:37:53;;;;;;;24.70;7.00;;;;;;;18.76;58.40;101270.56;8322290;28;20422;-62
2023/05/24 14:41:53;;;;;;;15.98;7.45;;;;;;;18.55;57.70;101273.03;8345435;28;20048;-61
2023/05/24 14:45:53;;;;;;;16.83;5.72;;;;;;;18.34;58.17;101275.41;8320931;28;20467;-61
2023/05/24 14:49:54;;;;;;;15.02;5.47;;;;;;;18.24;57.87;101271.13;8327095;28;22059;-60
2023/05/24 14:53:54;;;;;;;12.23;5.55;;;;;;;18.08;59.29;101274.69;8310222;28;20087;-60
2023/05/24 14:57:55;;;;;;;16.20;5.95;;;;;;;18.15;59.60;101267.53;8334466;28;20507;-64
2023/05/24 15:01:55;;;;;;;17.08;6.70;;;;;;;17.82;58.06;101268.53;8341159;28;20403;-64
2023/05/24 15:05:56;;;;;;;13.75;7.65;;;;;;;17.78;59.09;101267.16;8350461;28;20041;-64
2023/05/24 15:09:56;;;;;;;16.20;7.80;;;;;;;17.72;59.34;101266.97;8341048;28;22795;-60
2023/05/24 15:13:58;;;;;;;22.50;9.23;;;;;;;17.56;60.30;101262.31;8343813;28;20090;-63
2023/05/24 15:17:59;;;;;;;18.77;9.15;;;;;;;17.38;60.40;101265.16;8349581;28;20033;-63
2023/05/24 15:21:59;;;;;;;23.88;10.00;;;;;;;17.37;60.77;101268.06;8346724;28;20052;-63
2023/05/24 15:26:00;;;;;;;23.00;9.82;;;;;;;17.48;60.79;101267.78;8349247;28;20059;-63
2023/05/24 15:30:01;;;;;;;24.50;10.68;;;;;;;17.79;60.57;101257.94;8361170;28;20072;-64
2023/05/24 15:34:03;;;;;;;20.15;9.00;;;;;;;17.66;59.14;101265.78;8341332;28;20120;-63
2023/05/24 15:38:05;;;;;;;23.75;10.00;;;;;;;17.59;61.30;101259.25;8347862;28;20084;-63
2023/05/24 15:42:06;;;;;;;19.10;9.35;;;;;;;17.76;60.52;101260.13;8344468;28;20240;-63
2023/05/24 15:46:06;;;;;;;21.00;9.55;;;;;;;17.94;59.95;101264.44;8318962;28;20037;-63
2023/05/24 15:50:07;;;;;;;20.42;9.50;;;;;;;18.24;58.76;101247.31;8338080;28;20038;-61
2023/05/24 15:54:08;;;;;;;25.02;10.82;;;;;;;18.50;58.34;101245.28;8322373;28;20259;-63
2023/05/24 15:58:08;;;;;;;25.58;10.32;;;;;;;18.28;58.81;101248.72;8321252;28;20484;-60
2023/05/24 16:02:09;;;;;;;20.73;10.00;;;;;;;18.04;58.53;101251.44;8354084;28;20414;-63
2023/05/24 16:06:10;;;;;;;21.98;9.10;;;;;;;17.82;59.00;101249.38;8353188;28;20128;-63
2023/05/24 16:10:10;;;;;;;17.10;8.82;;;;;;;17.77;60.10;101254.50;8336075;28;20032;-63
2023/05/24 16:14:11;;;;;;;18.20;7.85;;;;;;;17.98;58.31;101246.66;8351042;28;20352;-63
2023/05/24 16:18:16;;;;;;;15.07;8.32;;;;;;;17.87;58.72;101255.19;8352973;28;20041;-63
2023/05/24 16:22:17;;;;;;;19.92;8.00;;;;;;;17.89;59.67;101247.69;8352361;28;20120;-63
2023/05/24 16:26:17;;;;;;;18.88;8.05;;;;;;;17.79;59.63;101247.00;8346211;28;20554;-63
2023/05/24 16:30:18;;;;;;;16.20;7.78;;;;;;;17.79;60.33;101255.19;8353913;28;20037;-63
2023/05/24 16:34:18;;;;;;;21.90;7.65;;;;;;;17.63;60.26;101240.63;8351258;28;20071;-63
2023/05/24 16:38:18;;;;;;;23.58;7.88;;;;;;;17.53;60.65;101240.78;8351308;28;20063;-60
2023/05/24 16:42:19;;;;;;;18.35;7.97;;;;;;;17.45;60.71;101233.41;8352649;28;20036;-60
2023/05/24 16:46:20;;;;;;;20.48;7.53;;;;;;;17.36;60.95;101233.53;8354113;28;20090;-60
2023/05/24 16:50:20;;;;;;;21.98;6.72;;;;;;;17.37;61.33;101229.78;8353988;28;20032;-59
2023/05/24 16:54:21;;;;;;;16.23;6.43;;;;;;;17.33;62.01;101234.72;8343035;28;20040;-60
2023/05/24 16:58:24;;;;;;;20.42;6.30;;;;;;;17.21;62.16;101244.28;8349667;28;20033;-59
2023/05/24 17:02:25;;;;;;;18.05;6.18;;;;;;;17.22;61.93;101248.69;8353714;28;20375;-59
2023/05/24 17:06:25;;;;;;;18.40;4.97;;;;;;;17.21;63.04;101247.00;8353542;28;20503;-59
2023/05/24 17:10:26;;;;;;;12.73;4.35;;;;;;;17.24;61.84;101245.81;8349247;28;20049;-63
2023/05/24 17:14:26;;;;;;;17.83;4.70;;;;;;;17.15;62.64;101260.47;8348761;28;20056;-63
2023/05/24 17:18:26;;;;;;;16.40;4.00;;;;;;;17.12;62.46;101264.38;8351515;28;20075;-62
2023/05/24 17:22:27;;;;;;;14.13;3.97;;;;;;;16.99;63.11;101261.22;8350901;28;20044;-62
2023/05/24 17:26:27;;;;;;;17.35;5.55;;;;;;;16.93;62.74;101263.78;8349646;28;20120;-62
2023/05/24 17:30:29;;;;;;;14.75;4.05;;;;;;;16.91;63.05;101252.16;8349857;28;20037;-59
2023/05/24 17:34:29;;;;;;;24.27;4.75;;;;;;;16.98;62.95;101245.00;8346449;28;20033;-59
2023/05/24 17:38:36;;;;;;;22.08;4.82;;;;;;;16.95;63.21;101251.66;8337069;28;20764;-59
2023/05/24 17:42:36;;;;;;;15.30;4.20;;;;;;;16.93;63.76;101247.38;8348277;28;20049;-59
2023/05/24 17:46:37;;;;;;;12.10;4.07;;;;;;;16.93;63.60;101247.38;8335953;28;20055;-59
2023/05/24 17:50:37;;;;;;;18.15;4.38;;;;;;;16.91;63.04;101243.94;8345825;28;20041;-60
2023/05/24 17:54:37;;;;;;;16.98;4.32;;;;;;;16.95;63.17;101240.72;8351252;28;20032;-59
2023/05/24 17:58:38;;;;;;;19.40;4.22;;;;;;;16.99;62.22;101246.72;8349844;28;20037;-60
2023/05/24 18:02:38;;;;;;;12.38;4.50;;;;;;;16.91;63.06;101252.16;8348029;28;20041;-60
2023/05/24 18:06:39;;;;;;;18.52;4.05;;;;;;;16.75;62.87;101254.81;8350362;28;20408;-60
2023/05/24 18:10:39;;;;;;;13.90;4.15;;;;;;;16.77;63.37;101252.78;8349287;28;20107;-58
2023/05/24 18:14:41;;;;;;;14.65;3.95;;;;;;;16.70;63.97;101254.41;8350681;28;20039;-59
2023/05/24 18:18:42;;;;;;;22.85;4.53;;;;;;;16.65;64.21;101254.91;8354933;28;20064;-58
2023/05/24 18:22:43;;;;;;;12.50;4.00;;;;;;;16.60;65.02;101261.88;8354076;28;20291;-58
2023/05/24 18:26:43;;;;;;;12.55;3.67;;;;;;;16.48;65.45;101257.69;8337542;28;20116;-59
2023/05/24 18:30:44;;;;;;;16.23;4.55;;;;;;;16.45;64.52;101252.56;8335267;28;20034;-59
2023/05/24 18:34:44;;;;;;;10.20;3.85;;;;;;;16.38;64.87;101255.03;8351795;28;20407;-58
2023/05/24 18:38:46;;;;;;;13.93;4.38;;;;;;;16.35;65.07;101262.69;8352698;28;20059;-59
2023/05/24 18:42:46;;;;;;;19.20;4.60;;;;;;;16.24;66.27;101271.13;8353334;28;20044;-59